Time;durP1;ratioP1;P1;durP2;ratioP2;P2;SDS_P1;SDS_P2;PMS_P1;PMS_P2;Temp;Humidity;BMP_temperature;BMP_pressure;BME280_temperature;BME280_humidity;BME280_pressure;Samples;Min_cycle;Max_cycle;Signal;HPM_P1;HPM_P2
2021/06/18 00:00:07;;;;;;;9.23;4.53;;;24.20;62.20;;;;;;5106142;28;27483;-68
2021/06/18 00:03:05;;;;;;;7.20;4.35;;;24.20;62.30;;;;;;5091682;28;27889;-67
2021/06/18 00:05:56;;;;;;;6.40;4.47;;;24.10;62.30;;;;;;5106021;28;27452;-67
2021/06/18 00:08:48;;;;;;;9.50;4.07;;;24.10;62.30;;;;;;5106301;28;27350;-67
2021/06/18 00:11:39;;;;;;;9.05;4.15;;;24.10;62.30;;;;;;5105973;28;27404;-67
2021/06/18 00:14:30;;;;;;;4.88;4.25;;;24.10;62.30;;;;;;5105854;28;27416;-66
2021/06/18 00:17:38;;;;;;;8.13;4.45;;;24.00;62.40;;;;;;5106132;28;27456;-73
2021/06/18 00:20:25;;;;;;;5.47;4.65;;;24.00;62.40;;;;;;5102731;27;27476;-68
2021/06/18 00:23:30;;;;;;;4.75;4.35;;;23.90;62.30;;;;;;5073097;28;27451;-70
2021/06/18 00:26:49;;;;;;;6.20;4.47;;;23.90;62.20;;;;;;5091212;28;27399;-69
2021/06/18 00:29:42;;;;;;;4.60;3.80;;;23.90;62.60;;;;;;5105824;28;27325;-67
2021/06/18 00:32:28;;;;;;;4.68;4.05;;;23.90;62.50;;;;;;5073079;28;27389;-66
2021/06/18 00:39:27;;;;;;;5.55;4.47;;;23.80;62.40;;;;;;5090848;27;27525;-67
2021/06/18 00:42:18;;;;;;;6.80;4.40;;;23.80;62.60;;;;;;5070113;28;27530;-66
2021/06/18 00:45:04;;;;;;;5.82;4.20;;;23.70;62.30;;;;;;5052260;28;27417;-66
2021/06/18 00:47:59;;;;;;;4.80;4.20;;;23.70;62.40;;;;;;5070191;28;27428;-66
2021/06/18 00:59:06;;;;;;;8.40;4.28;;;23.60;62.30;;;;;;5081534;28;27339;-67
2021/06/18 01:02:00;;;;;;;7.22;3.97;;;23.50;62.40;;;;;;5069952;28;27337;-66
2021/06/18 01:04:54;;;;;;;6.13;4.45;;;23.50;62.40;;;;;;5070129;28;27397;-66
2021/06/18 01:08:03;;;;;;;5.72;3.38;;;23.50;62.40;;;;;;5084627;28;27462;-66
2021/06/18 01:11:05;;;;;;;6.30;3.78;;;23.40;62.30;;;;;;5083574;28;27388;-66
2021/06/18 01:18:08;;;;;;;5.82;4.15;;;23.30;62.20;;;;;;5081761;28;27771;-66
2021/06/18 01:21:06;;;;;;;6.75;4.38;;;23.30;62.20;;;;;;5084362;28;27380;-66
2021/06/18 01:24:22;;;;;;;4.72;4.13;;;23.30;62.40;;;;;;5084361;28;27445;-66
2021/06/18 01:31:37;;;;;;;4.72;4.22;;;23.20;62.50;;;;;;5080995;28;27456;-67
2021/06/18 01:34:27;;;;;;;8.88;4.70;;;23.20;62.80;;;;;;5069881;28;27635;-67
2021/06/18 01:37:40;;;;;;;6.15;5.00;;;23.20;62.90;;;;;;5051920;28;27381;-69
2021/06/18 01:41:19;;;;;;;8.18;4.15;;;23.10;62.80;;;;;;5089127;28;27361;-68
2021/06/18 01:44:12;;;;;;;7.40;4.25;;;23.10;63.00;;;;;;5104546;28;27473;-66
2021/06/18 01:47:04;;;;;;;4.93;4.20;;;23.10;63.00;;;;;;5071573;28;27490;-66
2021/06/18 01:54:02;;;;;;;5.78;4.20;;;23.00;63.00;;;;;;5102795;28;27407;-67
2021/06/18 01:56:55;;;;;;;7.20;4.00;;;23.00;63.30;;;;;;5089098;28;27476;-66
2021/06/18 01:59:46;;;;;;;10.70;4.95;;;23.00;63.30;;;;;;5089065;28;27409;-66
2021/06/18 02:02:37;;;;;;;5.50;3.90;;;23.00;63.30;;;;;;5089007;28;27413;-66
2021/06/18 02:05:50;;;;;;;6.32;4.00;;;22.90;63.30;;;;;;5104143;28;27331;-67
2021/06/18 02:08:59;;;;;;;4.72;4.18;;;22.90;63.40;;;;;;5104312;28;27329;-68
2021/06/18 02:11:50;;;;;;;5.20;4.40;;;22.90;63.50;;;;;;5074834;28;27380;-66
2021/06/18 02:14:44;;;;;;;5.35;4.00;;;22.80;63.30;;;;;;5104021;28;27494;-67
2021/06/18 02:22:00;;;;;;;5.03;4.05;;;22.80;63.10;;;;;;5100435;28;27453;-67
2021/06/18 02:24:52;;;;;;;5.22;4.03;;;22.70;63.10;;;;;;5103876;28;27399;-67
2021/06/18 02:27:43;;;;;;;6.68;4.38;;;22.70;63.30;;;;;;5071508;28;27422;-67
2021/06/18 02:30:35;;;;;;;6.32;4.38;;;22.70;63.30;;;;;;5103905;28;27475;-67
2021/06/18 02:33:25;;;;;;;7.07;3.83;;;22.60;63.30;;;;;;5104107;28;27358;-66
2021/06/18 02:36:28;;;;;;;5.13;3.95;;;22.60;63.10;;;;;;5104035;28;27500;-68
2021/06/18 02:39:30;;;;;;;7.85;4.43;;;22.60;62.90;;;;;;5111085;27;27657;-69
2021/06/18 02:42:26;;;;;;;6.30;4.40;;;22.60;63.00;;;;;;5083070;28;26971;-67
2021/06/18 02:45:19;;;;;;;6.70;4.43;;;22.50;63.20;;;;;;5083115;28;27363;-65
2021/06/18 02:48:53;;;;;;;9.55;5.07;;;22.50;63.20;;;;;;5083272;28;27415;-66
2021/06/18 02:51:48;;;;;;;7.47;4.57;;;22.50;63.50;;;;;;5083261;28;27402;-67
2021/06/18 02:54:57;;;;;;;8.95;4.82;;;22.40;63.60;;;;;;5083162;28;27387;-66
2021/06/18 02:58:06;;;;;;;5.70;4.45;;;22.40;63.80;;;;;;5083092;28;27325;-65
2021/06/18 03:05:00;;;;;;;5.72;4.53;;;22.40;64.10;;;;;;5079591;28;27329;-66
2021/06/18 03:12:04;;;;;;;10.25;4.97;;;22.40;64.40;;;;;;5079541;28;27427;-67
2021/06/18 03:19:22;;;;;;;7.75;5.70;;;22.30;64.50;;;;;;5079458;28;27435;-69
2021/06/18 03:22:09;;;;;;;13.68;5.80;;;22.30;64.80;;;;;;5083008;28;27419;-65
2021/06/18 03:25:08;;;;;;;8.07;5.65;;;22.30;64.60;;;;;;5053945;28;27486;-68
2021/06/18 03:27:59;;;;;;;6.57;5.32;;;22.30;64.70;;;;;;5050909;28;27393;-66
2021/06/18 03:30:47;;;;;;;10.15;5.97;;;22.30;64.80;;;;;;5082791;28;27431;-67
2021/06/18 03:33:44;;;;;;;8.35;6.13;;;22.30;65.00;;;;;;5055277;28;27715;-68
2021/06/18 03:36:35;;;;;;;8.48;5.72;;;22.30;65.00;;;;;;5086267;28;28084;-66
2021/06/18 03:39:27;;;;;;;7.82;4.97;;;22.30;65.10;;;;;;5071266;28;27462;-66
2021/06/18 03:42:17;;;;;;;10.70;5.43;;;22.20;64.90;;;;;;5085752;28;27325;-66
2021/06/18 03:45:19;;;;;;;7.50;6.38;;;22.20;65.00;;;;;;5086144;28;27342;-67
2021/06/18 04:00:44;;;;;;;6.97;6.03;;;22.20;65.30;;;;;;5085520;28;27359;-66
2021/06/18 04:11:48;;;;;;;12.52;6.20;;;22.20;65.90;;;;;;5084290;28;27484;-66
2021/06/18 04:15:38;;;;;;;9.57;6.45;;;22.20;66.00;;;;;;5070512;28;27364;-67
2021/06/18 04:23:28;;;;;;;14.07;6.47;;;22.20;66.30;;;;;;5081989;28;27469;-70
2021/06/18 04:34:43;;;;;;;12.63;6.97;;;22.20;66.30;;;;;;5081934;28;27814;-69
2021/06/18 04:42:20;;;;;;;9.85;6.00;;;22.20;66.50;;;;;;5095053;27;27570;-70
2021/06/18 04:45:09;;;;;;;11.00;6.22;;;22.20;66.90;;;;;;5069136;28;27527;-67
2021/06/18 04:48:17;;;;;;;9.05;5.93;;;22.30;66.90;;;;;;5084727;28;27498;-70
2021/06/18 04:51:15;;;;;;;10.68;7.05;;;22.20;67.00;;;;;;5061189;28;27488;-68
2021/06/18 05:03:06;;;;;;;8.43;6.00;;;22.30;67.60;;;;;;5081817;28;27500;-73
2021/06/18 05:06:33;;;;;;;7.65;5.95;;;22.30;67.70;;;;;;5084912;28;27463;-70
2021/06/18 05:09:56;;;;;;;12.52;6.88;;;22.30;67.80;;;;;;5066790;28;27337;-69
2021/06/18 05:16:47;;;;;;;9.48;6.82;;;22.30;68.30;;;;;;5081772;28;27881;-68
2021/06/18 05:40:41;;;;;;;10.02;7.85;;;22.50;69.20;;;;;;5021295;28;27016;-75
2021/06/18 05:48:05;;;;;;;12.95;8.55;;;22.60;69.20;;;;;;5039277;28;27429;-70
2021/06/18 05:59:32;;;;;;;9.93;8.70;;;23.30;68.80;;;;;;5040975;28;27530;-67
2021/06/18 06:06:44;;;;;;;13.50;8.95;;;23.80;68.70;;;;;;4980176;28;27410;-68
2021/06/18 06:13:58;;;;;;;11.32;9.15;;;24.20;68.40;;;;;;4982412;28;27450;-70
2021/06/18 06:20:54;;;;;;;10.32;7.72;;;24.70;67.80;;;;;;4980645;28;27458;-67
2021/06/18 06:27:52;;;;;;;10.80;7.88;;;25.10;67.10;;;;;;4983121;28;27355;-67
2021/06/18 06:39:30;;;;;;;9.55;8.65;;;25.70;66.40;;;;;;5009006;28;27474;-76
2021/06/18 06:46:24;;;;;;;10.82;7.47;;;26.10;65.70;;;;;;5093357;28;27649;-74
2021/06/18 06:57:26;;;;;;;10.70;7.43;;;26.80;65.50;;;;;;5103414;28;27329;-70
2021/06/18 07:04:30;;;;;;;8.13;7.00;;;27.00;65.30;;;;;;5100676;28;27321;-72
2021/06/18 07:11:30;;;;;;;8.30;6.68;;;27.30;64.80;;;;;;5105376;27;27459;-69
2021/06/18 07:19:22;;;;;;;8.85;6.32;;;27.60;64.40;;;;;;5106469;28;27378;-70
2021/06/18 07:23:23;;;;;;;9.52;6.43;;;27.90;65.00;;;;;;5107486;28;27423;-70
2021/06/18 07:35:35;;;;;;;7.60;6.25;;;28.70;63.50;;;;;;5103868;28;27471;-69
2021/06/18 07:43:11;;;;;;;7.22;5.90;;;29.10;62.90;;;;;;5103789;28;27390;-68
2021/06/18 07:46:24;;;;;;;7.47;6.25;;;29.40;62.30;;;;;;5092115;28;27435;-71
2021/06/18 07:53:55;;;;;;;7.00;5.85;;;29.70;60.90;;;;;;5083400;28;27389;-72
2021/06/18 08:05:30;;;;;;;7.72;5.55;;;30.30;60.90;;;;;;5083568;28;27409;-69
2021/06/18 08:16:56;;;;;;;6.55;5.60;;;31.10;60.20;;;;;;5084317;28;27887;-70
2021/06/18 08:23:47;;;;;;;6.43;5.80;;;31.60;59.10;;;;;;5082674;28;27353;-71
2021/06/18 08:51:43;;;;;;;5.50;4.97;;;33.00;57.80;;;;;;3242284;27;29170;-71
2021/06/18 08:55:06;;;;;;;5.40;4.90;;;33.10;56.10;;;;;;5085779;28;27466;-71
2021/06/18 08:58:36;;;;;;;5.22;4.72;;;33.20;57.00;;;;;;5085744;28;27431;-72
2021/06/18 09:10:27;;;;;;;10.93;5.20;;;33.70;57.20;;;;;;5082426;28;27475;-72
2021/06/18 09:34:03;;;;;;;10.75;5.30;;;34.90;55.20;;;;;;5082611;28;27878;-72
2021/06/18 10:18:11;;;;;;;6.97;4.90;;;35.60;54.80;;;;;;5081361;28;27455;-72
2021/06/18 10:33:50;;;;;;;7.88;4.53;;;36.00;52.70;;;;;;5081269;28;27463;-73
2021/06/18 10:37:31;;;;;;;9.48;4.90;;;36.00;54.50;;;;;;5066823;28;27443;-74
2021/06/18 11:21:38;;;;;;;4.40;3.40;;;36.00;45.40;;;;;;5083789;28;27321;-71
2021/06/18 11:37:03;;;;;;;4.22;2.92;;;36.00;46.60;;;;;;5083874;28;27387;-74
2021/06/18 11:56:16;;;;;;;4.00;2.88;;;36.00;44.00;;;;;;5084749;28;27756;-73
2021/06/18 12:07:07;;;;;;;5.10;2.67;;;35.80;42.20;;;;;;5086183;28;27370;-72
2021/06/18 12:13:59;;;;;;;5.53;2.47;;;35.50;47.20;;;;;;5082774;28;27551;-70
2021/06/18 12:16:48;;;;;;;3.70;2.83;;;35.30;47.30;;;;;;5086427;28;27416;-70
2021/06/18 12:19:34;;;;;;;6.93;2.88;;;35.30;47.40;;;;;;5056766;28;27381;-70
2021/06/18 12:22:26;;;;;;;4.00;2.47;;;35.40;44.90;;;;;;5085914;28;27353;-70
2021/06/18 12:25:11;;;;;;;2.90;2.70;;;35.30;46.10;;;;;;5086036;28;27505;-70
2021/06/18 12:28:00;;;;;;;3.13;2.75;;;35.30;47.20;;;;;;5086070;28;27439;-71
2021/06/18 12:30:45;;;;;;;5.03;3.08;;;35.40;46.80;;;;;;5071147;28;27390;-70
2021/06/18 12:33:30;;;;;;;6.15;2.58;;;35.40;48.20;;;;;;5085738;28;27404;-70
2021/06/18 12:36:18;;;;;;;6.85;3.92;;;35.50;46.20;;;;;;5056432;28;27392;-71
2021/06/18 12:39:11;;;;;;;7.82;2.88;;;35.50;45.80;;;;;;5085206;28;27499;-70
2021/06/18 12:41:56;;;;;;;8.85;3.15;;;35.50;45.10;;;;;;5085959;28;27384;-71
2021/06/18 12:44:41;;;;;;;6.25;3.22;;;35.50;43.60;;;;;;5067363;28;27321;-71
2021/06/18 12:47:26;;;;;;;6.03;3.63;;;35.50;47.20;;;;;;5085195;28;27353;-71
2021/06/18 12:50:33;;;;;;;10.48;3.70;;;35.50;50.00;;;;;;5085579;28;27353;-70
2021/06/18 12:53:41;;;;;;;6.55;3.53;;;35.60;46.80;;;;;;5070473;28;27525;-70
2021/06/18 12:56:27;;;;;;;6.57;2.95;;;35.70;49.30;;;;;;5071255;28;27959;-70
2021/06/18 12:59:14;;;;;;;6.60;3.30;;;35.70;48.70;;;;;;5105813;28;27455;-71
2021/06/18 13:01:59;;;;;;;4.88;3.47;;;35.70;46.00;;;;;;5090764;28;27444;-71
2021/06/18 13:04:43;;;;;;;6.85;3.60;;;35.70;47.60;;;;;;5086482;28;27443;-71
2021/06/18 13:07:38;;;;;;;7.35;3.05;;;35.70;46.40;;;;;;5104524;28;27399;-71
2021/06/18 13:10:22;;;;;;;6.75;3.20;;;35.70;46.30;;;;;;5090393;28;27443;-72
2021/06/18 13:13:07;;;;;;;4.00;2.97;;;35.70;46.10;;;;;;5105497;28;27464;-71
2021/06/18 13:15:51;;;;;;;6.57;3.28;;;35.70;47.80;;;;;;5105779;28;27400;-71
2021/06/18 13:18:55;;;;;;;9.65;3.53;;;35.70;46.30;;;;;;5090255;28;27941;-71
2021/06/18 13:21:56;;;;;;;10.15;3.60;;;35.70;47.90;;;;;;5105366;28;27423;-71
2021/06/18 13:24:49;;;;;;;6.53;3.75;;;35.70;50.40;;;;;;5087034;28;27325;-70
2021/06/18 13:27:47;;;;;;;7.63;4.15;;;35.70;45.40;;;;;;5162326;27;28520;-70
2021/06/18 13:30:32;;;;;;;10.40;3.42;;;35.70;45.20;;;;;;5163636;27;27297;-71
2021/06/18 13:33:16;;;;;;;6.57;4.03;;;35.70;49.50;;;;;;5163325;27;27386;-71
2021/06/18 13:36:01;;;;;;;5.40;3.88;;;35.70;49.80;;;;;;5163554;27;27384;-70
2021/06/18 13:38:47;;;;;;;5.47;4.07;;;35.80;48.90;;;;;;5162471;27;27401;-70
2021/06/18 13:41:36;;;;;;;5.07;3.50;;;35.80;49.70;;;;;;5162748;27;27405;-70
2021/06/18 13:44:21;;;;;;;8.43;3.58;;;35.80;49.90;;;;;;5163182;27;27473;-71
2021/06/18 13:47:07;;;;;;;6.15;3.22;;;35.80;45.90;;;;;;5162807;27;27464;-70
2021/06/18 13:50:05;;;;;;;7.55;3.72;;;35.80;44.50;;;;;;5162520;27;27533;-70
2021/06/18 13:52:51;;;;;;;8.27;3.92;;;35.70;46.20;;;;;;5158929;27;27388;-70
2021/06/18 13:55:36;;;;;;;12.23;3.45;;;35.70;47.90;;;;;;5162830;27;27331;-70
2021/06/18 13:58:21;;;;;;;7.03;3.53;;;35.70;48.10;;;;;;5145529;27;27310;-70
2021/06/18 14:01:05;;;;;;;7.43;3.60;;;35.70;48.30;;;;;;5141953;27;28053;-70
2021/06/18 14:03:51;;;;;;;6.53;4.10;;;35.70;47.90;;;;;;5142221;27;27331;-70
2021/06/18 14:06:36;;;;;;;6.47;4.68;;;35.70;45.90;;;;;;5138689;27;27433;-70
2021/06/18 14:09:21;;;;;;;10.68;3.50;;;35.70;43.50;;;;;;5142200;27;27320;-69
2021/06/18 14:12:09;;;;;;;7.28;3.78;;;35.60;41.40;;;;;;5141764;27;27856;-70
2021/06/18 14:17:44;;;;;;;8.02;3.83;;;35.40;40.60;;;;;;5141997;27;27381;-70
2021/06/18 14:20:29;;;;;;;14.95;4.15;;;35.40;39.80;;;;;;5141101;27;27394;-70
2021/06/18 14:23:17;;;;;;;10.93;3.92;;;35.40;40.00;;;;;;5139287;27;27409;-70
2021/06/18 14:26:02;;;;;;;7.60;3.53;;;35.30;41.30;;;;;;5141647;27;27381;-70
2021/06/18 14:28:47;;;;;;;12.65;4.10;;;35.30;38.30;;;;;;5142610;27;27351;-70
2021/06/18 14:31:32;;;;;;;9.23;3.67;;;35.30;40.70;;;;;;5139150;27;27296;-70
2021/06/18 14:34:16;;;;;;;6.05;3.45;;;35.30;41.10;;;;;;5142391;27;27377;-70
2021/06/18 14:37:03;;;;;;;7.43;3.83;;;35.30;42.10;;;;;;5139317;27;27342;-70
2021/06/18 14:39:47;;;;;;;8.70;3.70;;;35.30;41.30;;;;;;5128501;27;27348;-70
2021/06/18 14:42:32;;;;;;;6.75;3.70;;;35.30;41.50;;;;;;5128429;27;27330;-70
2021/06/18 14:45:17;;;;;;;8.25;4.13;;;35.30;44.10;;;;;;5128368;27;27464;-70
2021/06/18 14:48:01;;;;;;;7.60;4.00;;;35.30;43.90;;;;;;5128150;27;27555;-70
2021/06/18 14:50:46;;;;;;;9.43;3.70;;;35.30;42.90;;;;;;5127522;27;27343;-70
2021/06/18 14:53:31;;;;;;;5.55;3.33;;;35.30;43.90;;;;;;5128025;27;27436;-70
2021/06/18 14:56:16;;;;;;;5.95;3.85;;;35.30;42.60;;;;;;5127673;27;27378;-70
2021/06/18 14:59:01;;;;;;;6.65;3.67;;;35.30;42.10;;;;;;5127636;27;27386;-70
2021/06/18 15:01:46;;;;;;;8.10;3.90;;;35.30;44.20;;;;;;5126865;27;27346;-70
2021/06/18 15:04:31;;;;;;;7.20;4.13;;;35.30;44.50;;;;;;5124072;27;27382;-70
2021/06/18 15:07:15;;;;;;;7.65;3.60;;;35.30;43.20;;;;;;5123895;27;27331;-70
2021/06/18 15:10:00;;;;;;;7.60;3.50;;;35.20;41.10;;;;;;5127122;27;27411;-70
2021/06/18 15:12:44;;;;;;;5.45;3.47;;;35.20;42.70;;;;;;5127536;27;27402;-70
2021/06/18 15:15:29;;;;;;;7.85;3.85;;;35.20;42.80;;;;;;5127056;27;27334;-70
2021/06/18 15:18:14;;;;;;;10.00;3.95;;;35.20;44.50;;;;;;5125964;27;27505;-71
2021/06/18 15:20:59;;;;;;;8.55;4.07;;;35.30;45.00;;;;;;5127292;27;27471;-70
2021/06/18 15:23:44;;;;;;;7.93;3.35;;;35.20;44.10;;;;;;5127376;27;27423;-70
2021/06/18 15:26:28;;;;;;;7.05;3.55;;;35.20;44.30;;;;;;5126351;27;27415;-70
2021/06/18 15:29:13;;;;;;;6.05;3.75;;;35.20;43.40;;;;;;5127041;27;27441;-70
2021/06/18 15:31:58;;;;;;;7.72;4.07;;;35.20;43.70;;;;;;5125966;27;27520;-70
2021/06/18 15:34:42;;;;;;;9.05;3.83;;;35.20;43.90;;;;;;5126047;27;27461;-70
2021/06/18 15:37:27;;;;;;;8.85;4.13;;;35.20;45.10;;;;;;5122867;27;27308;-70
2021/06/18 15:40:12;;;;;;;7.47;3.72;;;35.20;42.60;;;;;;5126950;27;27427;-70
2021/06/18 15:42:57;;;;;;;7.22;3.58;;;35.20;42.20;;;;;;5126850;27;27462;-70
2021/06/18 15:45:42;;;;;;;7.50;3.40;;;35.20;43.20;;;;;;5126220;27;27465;-70
2021/06/18 15:48:26;;;;;;;3.47;3.17;;;35.10;44.60;;;;;;5126770;27;27476;-71
2021/06/18 15:51:14;;;;;;;5.43;4.13;;;35.10;44.60;;;;;;5125886;27;27884;-70
2021/06/18 15:53:59;;;;;;;8.82;3.45;;;35.10;44.30;;;;;;5123360;27;27344;-70
2021/06/18 15:56:44;;;;;;;8.07;3.80;;;35.10;42.90;;;;;;5126445;27;27480;-70
2021/06/18 15:59:28;;;;;;;8.18;4.03;;;35.10;41.70;;;;;;5126363;27;27388;-70
2021/06/18 16:02:13;;;;;;;10.43;3.80;;;35.00;41.20;;;;;;5126544;27;27435;-70
2021/06/18 16:04:58;;;;;;;6.57;4.38;;;35.00;41.90;;;;;;5126214;27;27411;-70
2021/06/18 16:07:44;;;;;;;7.40;3.60;;;34.90;41.50;;;;;;5126145;27;26864;-70
2021/06/18 16:10:29;;;;;;;7.50;3.50;;;34.90;43.30;;;;;;5126456;27;27445;-70
2021/06/18 16:13:13;;;;;;;9.90;3.97;;;34.90;42.90;;;;;;5125733;27;27410;-70
2021/06/18 16:15:58;;;;;;;9.52;4.03;;;34.90;43.40;;;;;;5122760;27;27525;-69
2021/06/18 16:18:43;;;;;;;9.75;3.92;;;34.90;44.00;;;;;;5126083;27;27429;-71
2021/06/18 16:21:28;;;;;;;8.35;4.35;;;34.90;43.20;;;;;;5125908;27;26860;-69
2021/06/18 16:24:13;;;;;;;6.38;4.10;;;34.80;43.50;;;;;;5125899;27;27860;-69
2021/06/18 16:26:58;;;;;;;9.23;3.85;;;34.70;42.70;;;;;;5125212;27;27438;-70
2021/06/18 16:29:43;;;;;;;10.27;3.78;;;34.60;43.40;;;;;;5126211;27;27527;-70
2021/06/18 16:32:29;;;;;;;6.85;3.63;;;34.40;44.60;;;;;;5125338;27;27421;-70
2021/06/18 16:35:14;;;;;;;8.57;3.58;;;34.30;45.10;;;;;;5126033;27;27453;-70
2021/06/18 16:37:59;;;;;;;11.52;4.00;;;34.10;45.60;;;;;;5125702;27;27515;-69
2021/06/18 16:40:44;;;;;;;10.93;3.78;;;34.00;45.40;;;;;;5122491;27;27394;-69
2021/06/18 16:43:29;;;;;;;8.90;3.80;;;33.80;46.20;;;;;;5125657;27;27458;-69
2021/06/18 16:46:14;;;;;;;5.80;3.75;;;33.70;47.50;;;;;;5125674;27;27418;-69
2021/06/18 16:48:59;;;;;;;4.75;3.30;;;33.50;47.90;;;;;;5121774;27;27460;-68
2021/06/18 16:51:44;;;;;;;6.15;3.80;;;33.40;48.00;;;;;;5125577;27;27480;-68
2021/06/18 16:54:33;;;;;;;9.55;4.13;;;33.20;47.70;;;;;;5125172;27;26907;-78
2021/06/18 16:57:17;;;;;;;17.27;4.20;;;33.10;47.40;;;;;;5124602;27;27412;-68
2021/06/18 17:00:06;;;;;;;10.02;4.20;;;32.90;45.00;;;;;;5125466;27;27491;-68
2021/06/18 17:02:51;;;;;;;6.55;4.03;;;32.80;45.20;;;;;;5122372;27;27387;-69
2021/06/18 17:05:35;;;;;;;12.65;4.00;;;32.60;45.90;;;;;;5125111;27;27403;-69
2021/06/18 17:08:21;;;;;;;6.07;3.92;;;32.50;46.60;;;;;;5125519;27;27468;-69
2021/06/18 17:11:08;;;;;;;6.88;4.10;;;32.30;47.00;;;;;;5124624;27;27434;-69
2021/06/18 17:14:29;;;;;;;12.30;4.20;;;32.20;47.90;;;;;;5125495;27;27390;-68
2021/06/18 17:17:13;;;;;;;10.77;4.20;;;32.10;48.70;;;;;;5099942;27;27377;-69
2021/06/18 17:19:58;;;;;;;8.48;4.65;;;32.00;49.20;;;;;;5125091;27;27965;-68
2021/06/18 17:22:44;;;;;;;7.88;3.83;;;31.90;50.10;;;;;;5125041;27;27437;-67
2021/06/18 17:25:29;;;;;;;11.82;4.82;;;31.80;51.10;;;;;;5106041;27;27458;-68
2021/06/18 17:28:14;;;;;;;8.30;4.50;;;31.70;51.80;;;;;;5125217;27;27339;-69
2021/06/18 17:30:59;;;;;;;10.27;4.68;;;31.60;52.70;;;;;;5124862;27;27331;-67
2021/06/18 17:33:44;;;;;;;12.00;4.82;;;31.50;53.20;;;;;;5124266;27;27401;-68
2021/06/18 17:36:28;;;;;;;8.57;4.82;;;31.50;54.20;;;;;;5125174;27;27389;-68
2021/06/18 17:39:13;;;;;;;15.32;4.72;;;31.40;54.40;;;;;;5121407;27;27332;-68
2021/06/18 17:41:58;;;;;;;17.23;5.53;;;31.30;55.20;;;;;;5124758;27;28012;-68
2021/06/18 17:44:43;;;;;;;19.30;7.55;;;31.30;55.90;;;;;;5124715;27;27393;-68
2021/06/18 17:47:28;;;;;;;13.77;5.07;;;31.20;56.20;;;;;;5124538;27;27401;-68
2021/06/18 17:50:12;;;;;;;12.90;6.38;;;31.20;56.00;;;;;;5126032;27;27373;-68
2021/06/18 17:52:57;;;;;;;9.70;7.38;;;31.10;56.40;;;;;;5124421;27;27291;-68
2021/06/18 17:55:42;;;;;;;9.02;5.90;;;31.00;55.90;;;;;;5125139;27;27414;-67
2021/06/18 17:58:27;;;;;;;11.40;7.03;;;31.00;56.50;;;;;;5124782;27;27363;-69
2021/06/18 18:01:12;;;;;;;10.98;7.10;;;31.00;56.10;;;;;;5124218;27;27616;-67
2021/06/18 18:03:56;;;;;;;11.57;6.63;;;31.00;56.10;;;;;;5124840;27;27387;-67
2021/06/18 18:06:41;;;;;;;12.23;6.35;;;30.90;56.70;;;;;;5120529;27;27319;-67
2021/06/18 18:09:26;;;;;;;9.90;5.85;;;30.90;57.20;;;;;;5124825;27;27422;-67
2021/06/18 18:12:10;;;;;;;8.15;5.47;;;30.80;56.70;;;;;;5124757;27;27382;-68
2021/06/18 18:14:55;;;;;;;12.27;5.47;;;30.80;57.00;;;;;;5129007;27;27398;-67
2021/06/18 18:17:40;;;;;;;10.48;4.95;;;30.80;57.40;;;;;;5128274;27;27359;-68
2021/06/18 18:20:24;;;;;;;8.68;5.47;;;30.80;57.80;;;;;;5124800;27;26937;-67
2021/06/18 18:23:09;;;;;;;8.68;5.10;;;30.80;57.80;;;;;;5128175;27;27398;-67
2021/06/18 18:25:57;;;;;;;11.45;5.00;;;30.70;58.50;;;;;;5126906;27;27438;-68
2021/06/18 18:28:42;;;;;;;6.93;4.57;;;30.70;57.80;;;;;;5128140;27;27335;-68
2021/06/18 18:31:27;;;;;;;8.93;5.28;;;30.70;57.70;;;;;;5123725;27;27354;-67
2021/06/18 18:34:12;;;;;;;7.82;4.82;;;30.70;57.90;;;;;;5127215;27;27370;-67
2021/06/18 18:36:57;;;;;;;7.97;4.68;;;30.60;58.10;;;;;;5128191;27;27344;-67
2021/06/18 18:39:42;;;;;;;8.35;4.80;;;30.60;57.70;;;;;;5127514;27;27423;-68
2021/06/18 18:42:27;;;;;;;8.73;4.35;;;30.60;57.40;;;;;;5127607;27;27434;-67
2021/06/18 18:45:12;;;;;;;9.40;5.13;;;30.60;57.10;;;;;;5127687;27;27381;-68
2021/06/18 18:47:57;;;;;;;8.85;4.80;;;30.60;57.00;;;;;;5127549;27;27340;-67
2021/06/18 18:50:41;;;;;;;8.73;5.13;;;30.50;56.60;;;;;;5127724;27;27345;-67
2021/06/18 18:53:26;;;;;;;10.35;4.90;;;30.40;56.70;;;;;;5127717;27;27428;-66
2021/06/18 18:56:10;;;;;;;10.95;4.47;;;30.40;56.30;;;;;;5126787;27;27593;-67
2021/06/18 18:59:04;;;;;;;9.63;5.22;;;30.30;56.30;;;;;;5127738;27;27972;-67
2021/06/18 19:01:49;;;;;;;10.60;5.00;;;30.30;56.10;;;;;;5127275;27;27461;-67
2021/06/18 19:04:34;;;;;;;8.85;4.60;;;30.20;55.80;;;;;;5127618;27;27419;-66
2021/06/18 19:07:18;;;;;;;13.38;4.78;;;30.10;55.90;;;;;;5127176;27;27457;-67
2021/06/18 19:10:06;;;;;;;6.97;5.35;;;30.00;55.90;;;;;;5127100;27;27471;-67
2021/06/18 19:12:51;;;;;;;9.52;4.32;;;30.00;56.50;;;;;;5123990;27;27377;-67
2021/06/18 19:15:36;;;;;;;8.60;4.07;;;29.90;56.70;;;;;;5127065;27;27418;-67
2021/06/18 19:18:22;;;;;;;17.17;5.20;;;29.90;56.90;;;;;;5127286;27;27405;-66
2021/06/18 19:21:06;;;;;;;7.47;4.68;;;29.80;57.00;;;;;;5126870;27;27879;-67
2021/06/18 19:23:51;;;;;;;5.93;3.95;;;29.80;57.00;;;;;;5122745;27;27581;-67
2021/06/18 19:26:36;;;;;;;6.75;4.88;;;29.70;57.10;;;;;;5126320;27;27675;-67
2021/06/18 19:29:21;;;;;;;5.53;4.38;;;29.60;57.20;;;;;;5127155;27;27419;-67
2021/06/18 19:32:06;;;;;;;4.55;4.05;;;29.60;56.90;;;;;;5126996;27;27374;-68
2021/06/18 19:34:51;;;;;;;5.53;4.43;;;29.50;56.80;;;;;;5127008;27;27514;-67
2021/06/18 19:37:43;;;;;;;10.57;4.95;;;29.50;56.90;;;;;;5126756;27;27429;-69
2021/06/18 19:40:28;;;;;;;9.50;5.07;;;29.40;56.90;;;;;;5126941;27;27504;-67
2021/06/18 19:43:12;;;;;;;9.45;4.95;;;29.30;56.80;;;;;;5126686;27;27406;-66
2021/06/18 19:45:59;;;;;;;8.98;6.20;;;29.30;56.70;;;;;;5126417;27;27449;-67
2021/06/18 19:48:43;;;;;;;19.67;5.53;;;29.20;56.70;;;;;;5126643;27;27476;-66
2021/06/18 19:51:28;;;;;;;7.95;5.35;;;29.20;57.20;;;;;;5126045;27;27472;-67
2021/06/18 19:54:13;;;;;;;6.53;5.20;;;29.10;56.70;;;;;;5123431;27;27843;-67
2021/06/18 19:56:58;;;;;;;9.27;5.35;;;29.00;56.90;;;;;;5126702;27;27448;-66
2021/06/18 19:59:43;;;;;;;8.55;5.65;;;29.00;56.70;;;;;;5126442;27;27495;-67
2021/06/18 20:02:28;;;;;;;7.65;5.20;;;28.90;56.70;;;;;;5126614;27;27428;-67
2021/06/18 20:05:13;;;;;;;9.02;5.53;;;28.80;57.00;;;;;;5126213;27;27479;-66
2021/06/18 20:07:58;;;;;;;9.80;5.28;;;28.80;57.00;;;;;;5126457;27;27496;-67
2021/06/18 20:10:42;;;;;;;14.55;5.63;;;28.80;57.00;;;;;;5125382;27;27461;-67
2021/06/18 20:13:27;;;;;;;8.80;5.13;;;28.70;57.00;;;;;;5126426;27;27407;-67
2021/06/18 20:16:12;;;;;;;9.75;5.93;;;28.70;56.70;;;;;;5126084;27;27391;-67
2021/06/18 20:18:58;;;;;;;10.68;5.35;;;28.60;57.20;;;;;;5124117;27;27468;-67
2021/06/18 20:21:42;;;;;;;12.68;5.90;;;28.60;56.80;;;;;;5126361;27;27413;-67
2021/06/18 20:24:27;;;;;;;39.65;7.75;;;28.60;56.90;;;;;;5122903;27;27409;-67
2021/06/18 20:27:11;;;;;;;45.80;9.35;;;28.50;56.80;;;;;;5124914;27;27508;-67
2021/06/18 20:29:56;;;;;;;35.60;7.53;;;28.50;56.70;;;;;;5125557;27;27414;-67
2021/06/18 20:32:41;;;;;;;17.92;6.90;;;28.40;57.00;;;;;;5107370;27;27434;-67
2021/06/18 20:35:25;;;;;;;18.20;7.28;;;28.30;56.80;;;;;;5125064;27;27540;-70
2021/06/18 20:38:09;;;;;;;13.95;5.82;;;28.30;57.20;;;;;;5125012;27;27336;-66
2021/06/18 20:40:54;;;;;;;13.02;5.88;;;28.30;57.00;;;;;;5125925;27;27355;-67
2021/06/18 20:43:38;;;;;;;10.30;6.28;;;28.20;57.00;;;;;;5125254;27;27360;-66
2021/06/18 20:46:23;;;;;;;16.25;7.00;;;28.20;57.50;;;;;;5125760;27;27394;-67
2021/06/18 20:49:07;;;;;;;13.25;6.43;;;28.10;57.50;;;;;;5125501;27;27397;-67
2021/06/18 20:51:52;;;;;;;11.63;6.45;;;28.10;57.60;;;;;;5125521;27;27367;-66
2021/06/18 20:54:49;;;;;;;11.40;6.25;;;28.10;57.00;;;;;;5125863;27;27311;-66
2021/06/18 20:57:33;;;;;;;8.82;6.43;;;28.00;57.00;;;;;;5126119;27;27324;-67
2021/06/18 21:00:19;;;;;;;9.77;6.75;;;28.00;57.30;;;;;;5125605;27;27374;-66
2021/06/18 21:03:04;;;;;;;11.10;6.30;;;28.00;57.60;;;;;;5125653;27;27374;-67
2021/06/18 21:05:49;;;;;;;14.20;6.38;;;27.90;58.00;;;;;;5122362;27;27332;-67
2021/06/18 21:08:34;;;;;;;15.32;6.57;;;27.90;58.10;;;;;;5125318;27;27314;-66
2021/06/18 21:11:19;;;;;;;7.60;6.05;;;27.90;58.10;;;;;;5124973;27;27844;-67
2021/06/18 21:14:03;;;;;;;10.52;7.13;;;27.80;58.20;;;;;;5125421;27;27328;-66
2021/06/18 21:16:47;;;;;;;7.88;6.55;;;27.80;58.30;;;;;;5124515;27;27362;-72
2021/06/18 21:19:32;;;;;;;12.40;7.55;;;27.80;58.70;;;;;;5125227;27;27319;-71
2021/06/18 21:22:17;;;;;;;11.68;7.68;;;27.80;58.90;;;;;;5125359;27;27872;-72
2021/06/18 21:25:02;;;;;;;11.73;7.22;;;27.80;59.00;;;;;;5125138;27;27421;-73
2021/06/18 21:27:46;;;;;;;13.68;6.53;;;27.80;59.40;;;;;;5124614;27;27352;-73
2021/06/18 21:30:32;;;;;;;10.80;7.28;;;27.70;59.40;;;;;;5125428;27;27381;-72
2021/06/18 21:33:16;;;;;;;7.57;6.18;;;27.80;59.70;;;;;;5125058;27;27344;-72